createdAt,value
2023-01-30T00:01:21.163Z,-6.52
2023-01-30T00:03:48.070Z,-6.44
2023-01-30T00:06:15.003Z,-6.51
2023-01-30T00:08:41.581Z,-6.68
2023-01-30T00:11:10.747Z,-6.29
2023-01-30T00:13:38.539Z,-6.32
2023-01-30T00:16:06.045Z,-6.22
2023-01-30T00:18:32.957Z,-6.42
2023-01-30T00:21:02.032Z,-6.51
2023-01-30T00:23:29.795Z,-6.35
2023-01-30T00:25:56.680Z,-6.42
2023-01-30T00:28:23.669Z,-6.67
2023-01-30T00:30:52.205Z,-6.33
2023-01-30T00:33:20.574Z,-6.31
2023-01-30T00:35:48.640Z,-6.25
2023-01-30T00:38:15.414Z,-6.21
2023-01-30T00:40:44.752Z,-6.19
2023-01-30T00:43:36.646Z,-6.27
2023-01-30T00:46:25.131Z,-6.30
2023-01-30T00:48:53.220Z,-6.51
2023-01-30T00:51:19.911Z,-6.45
2023-01-30T00:53:47.395Z,-6.40
2023-01-30T00:56:14.191Z,-6.22
2023-01-30T00:58:41.353Z,-6.29
2023-01-30T01:01:11.244Z,-6.26
2023-01-30T01:03:38.096Z,-5.93
2023-01-30T01:06:05.174Z,-6.05
2023-01-30T01:08:32.108Z,-5.76
2023-01-30T01:11:01.851Z,-5.45
2023-01-30T01:13:28.785Z,-5.60
2023-01-30T01:15:55.417Z,-5.33
2023-01-30T01:18:22.035Z,-5.43
2023-01-30T01:20:48.681Z,-4.88
2023-01-30T01:23:15.344Z,-4.83
2023-01-30T01:25:42.140Z,-4.50
2023-01-30T01:28:10.850Z,-4.44
2023-01-30T01:30:38.392Z,-4.55
2023-01-30T01:33:05.063Z,-4.33
2023-01-30T01:35:31.695Z,-4.51
2023-01-30T01:37:58.316Z,-4.24
2023-01-30T01:40:43.482Z,-4.23
2023-01-30T01:43:22.075Z,-4.22
2023-01-30T01:45:51.867Z,-4.13
2023-01-30T01:48:26.611Z,-4.10
2023-01-30T01:51:03.616Z,-4.29
2023-01-30T01:53:35.796Z,-4.34
2023-01-30T01:56:04.115Z,-4.06
2023-01-30T01:58:47.717Z,-4.03
2023-01-30T02:01:14.964Z,-4.18
2023-01-30T02:03:47.195Z,-3.98
2023-01-30T02:06:17.241Z,-4.00
2023-01-30T02:08:48.020Z,-3.91
2023-01-30T02:11:26.281Z,-4.12
2023-01-30T02:13:53.736Z,-3.97
2023-01-30T02:16:21.485Z,-3.88
2023-01-30T02:18:48.613Z,-4.09
2023-01-30T02:21:47.612Z,-3.83
2023-01-30T02:24:41.573Z,-4.00
2023-01-30T02:27:48.290Z,-3.89
2023-01-30T02:30:39.862Z,-3.83
2023-01-30T02:33:21.792Z,-3.83
2023-01-30T02:36:07.024Z,-3.84
2023-01-30T02:39:03.142Z,-4.16
2023-01-30T02:41:54.338Z,-3.92
2023-01-30T02:44:31.994Z,-3.89
2023-01-30T02:47:11.037Z,-3.90
2023-01-30T02:50:05.811Z,-3.85
2023-01-30T02:52:34.148Z,-4.12
2023-01-30T02:55:02.618Z,-3.91
2023-01-30T02:57:29.507Z,-4.01
2023-01-30T03:00:04.915Z,-3.99
2023-01-30T03:03:08.704Z,-3.73
2023-01-30T03:05:59.926Z,-3.70
2023-01-30T03:09:06.493Z,-3.91
2023-01-30T03:12:32.423Z,-3.67
2023-01-30T03:14:59.021Z,-3.66
2023-01-30T03:17:28.009Z,-3.63
2023-01-30T03:19:55.951Z,-3.75
2023-01-30T03:22:23.296Z,-3.73
2023-01-30T03:24:53.563Z,-3.67
2023-01-30T03:27:22.124Z,-3.62
2023-01-30T03:29:48.858Z,-3.60
2023-01-30T03:32:15.559Z,-3.87
2023-01-30T03:34:42.705Z,-3.96
2023-01-30T03:37:10.183Z,-3.77
2023-01-30T03:39:37.069Z,-3.54
2023-01-30T03:42:05.412Z,-3.67
2023-01-30T03:44:32.146Z,-3.76
2023-01-30T03:46:58.769Z,-3.95
2023-01-30T03:49:25.550Z,-3.48
2023-01-30T03:51:52.142Z,-3.67
2023-01-30T03:54:19.532Z,-3.63
2023-01-30T03:56:46.841Z,-3.43
2023-01-30T03:59:13.483Z,-3.67
2023-01-30T04:01:47.746Z,-3.54
2023-01-30T04:04:14.592Z,-3.72
2023-01-30T04:06:42.051Z,-3.70
2023-01-30T04:09:08.743Z,-3.67
2023-01-30T04:11:40.705Z,-3.43
2023-01-30T04:14:07.321Z,-3.60
2023-01-30T04:16:42.791Z,-3.58
2023-01-30T04:19:37.681Z,-3.54
2023-01-30T04:22:04.670Z,-3.67
2023-01-30T04:24:31.301Z,-3.48
2023-01-30T04:26:58.130Z,-3.37
2023-01-30T04:29:25.517Z,-3.35
2023-01-30T04:31:53.758Z,-3.32
2023-01-30T04:34:23.925Z,-3.30
2023-01-30T04:36:50.610Z,-3.30
2023-01-30T04:39:17.565Z,-3.38
2023-01-30T04:41:44.342Z,-3.66
2023-01-30T04:44:10.944Z,-3.44
2023-01-30T04:47:00.391Z,-3.33
2023-01-30T04:49:27.716Z,-3.20
2023-01-30T04:51:54.345Z,-3.29
2023-01-30T04:54:24.149Z,-3.15
2023-01-30T04:56:51.024Z,-3.09
2023-01-30T04:59:17.771Z,-3.21
2023-01-30T05:01:46.091Z,-3.03
2023-01-30T05:04:14.237Z,-3.06
2023-01-30T05:06:43.895Z,-3.14
2023-01-30T05:09:10.592Z,-3.19
2023-01-30T05:11:37.577Z,-3.07
2023-01-30T05:14:04.244Z,-3.02
2023-01-30T05:16:31.088Z,-3.05
2023-01-30T05:18:57.714Z,-2.91
2023-01-30T05:21:27.883Z,-3.18
2023-01-30T05:23:56.587Z,-2.99
2023-01-30T05:26:24.417Z,-3.10
2023-01-30T05:28:56.196Z,-3.07
2023-01-30T05:31:23.713Z,-3.12
2023-01-30T05:33:52.439Z,-3.00
2023-01-30T05:36:21.137Z,-2.94
2023-01-30T05:38:47.797Z,-3.06
2023-01-30T05:41:16.296Z,-2.97
2023-01-30T05:43:43.723Z,-2.87
2023-01-30T05:46:12.303Z,-2.73
2023-01-30T05:48:39.397Z,-2.92
2023-01-30T05:51:06.469Z,-2.97
2023-01-30T05:53:37.183Z,-2.79
2023-01-30T05:56:05.696Z,-2.76
2023-01-30T05:58:33.062Z,-2.78
2023-01-30T06:01:04.682Z,-2.73
2023-01-30T06:03:31.539Z,-2.75
2023-01-30T06:05:59.549Z,-2.88
2023-01-30T06:08:26.128Z,-2.86
2023-01-30T06:10:52.740Z,-2.77
2023-01-30T06:13:19.356Z,-2.87
2023-01-30T06:15:46.422Z,-2.54
2023-01-30T06:18:13.183Z,-2.86
2023-01-30T06:20:39.848Z,-2.45
2023-01-30T06:23:06.477Z,-2.53
2023-01-30T06:25:33.163Z,-2.42
2023-01-30T06:27:59.753Z,-2.62
2023-01-30T06:30:26.411Z,-2.42
2023-01-30T06:32:53.245Z,-2.51
2023-01-30T06:35:20.206Z,-2.62
2023-01-30T06:37:47.077Z,-2.36
2023-01-30T06:40:16.830Z,-2.44
2023-01-30T06:42:47.654Z,-2.28
2023-01-30T06:45:16.805Z,-2.26
2023-01-30T06:47:46.746Z,-2.25
2023-01-30T06:50:14.590Z,-2.24
2023-01-30T06:52:42.765Z,-2.20
2023-01-30T06:55:11.380Z,-2.39
2023-01-30T06:57:38.208Z,-2.51
2023-01-30T07:00:06.639Z,-2.24
2023-01-30T07:02:35.354Z,-2.35
2023-01-30T07:05:03.182Z,-2.32
2023-01-30T07:07:30.992Z,-2.35
2023-01-30T07:10:07.945Z,-2.16
2023-01-30T07:12:36.125Z,-2.24
2023-01-30T07:15:03.288Z,-2.20
2023-01-30T07:17:29.985Z,-2.10
2023-01-30T07:19:56.679Z,-2.16
2023-01-30T07:22:23.315Z,-2.34
2023-01-30T07:24:49.978Z,-2.16
2023-01-30T07:27:17.007Z,-2.21
2023-01-30T07:29:43.679Z,-2.10
2023-01-30T07:32:16.840Z,-2.16
2023-01-30T07:34:43.466Z,-2.11
2023-01-30T07:37:10.409Z,-1.90
2023-01-30T07:39:37.153Z,-2.02
2023-01-30T07:42:04.290Z,-1.86
2023-01-30T07:44:31.265Z,-1.86
2023-01-30T07:46:57.923Z,-2.00
2023-01-30T07:49:24.555Z,-1.96
2023-01-30T07:51:51.209Z,-1.89
2023-01-30T07:54:18.010Z,-1.97
2023-01-30T07:56:44.747Z,-1.94
2023-01-30T07:59:12.326Z,-1.88
2023-01-30T08:01:38.987Z,-2.00
2023-01-30T08:04:05.631Z,-2.08
2023-01-30T08:06:32.314Z,-1.90
2023-01-30T08:08:58.914Z,-2.04
2023-01-30T08:11:25.528Z,-1.87
2023-01-30T08:13:52.140Z,-1.96
2023-01-30T08:16:18.771Z,-1.87
2023-01-30T08:18:45.383Z,-1.91
2023-01-30T08:21:12.185Z,-1.82
2023-01-30T08:23:38.747Z,-1.80
2023-01-30T08:26:06.322Z,-1.96
2023-01-30T08:28:33.383Z,-1.89
2023-01-30T08:31:00.130Z,-1.80
2023-01-30T08:33:26.920Z,-1.85
2023-01-30T08:35:53.553Z,-1.97
2023-01-30T08:38:20.204Z,-2.11
2023-01-30T08:40:46.775Z,-1.86
2023-01-30T08:43:13.375Z,-2.02
2023-01-30T08:45:39.983Z,-1.95
2023-01-30T08:48:07.223Z,-1.94
2023-01-30T08:50:34.777Z,-1.84
2023-01-30T08:53:06.992Z,-1.78
2023-01-30T08:55:33.664Z,-1.75
2023-01-30T08:58:00.648Z,-1.72
2023-01-30T09:00:28.293Z,-1.76
2023-01-30T09:02:56.835Z,-1.80
2023-01-30T09:05:24.422Z,-1.79
2023-01-30T09:07:51.696Z,-1.96
2023-01-30T09:10:18.862Z,-1.80
2023-01-30T09:12:46.600Z,-1.86
2023-01-30T09:15:13.263Z,-1.76
2023-01-30T09:17:40.131Z,-1.90
2023-01-30T09:20:08.766Z,-1.82
2023-01-30T09:22:35.387Z,-1.68
2023-01-30T09:25:02.198Z,-1.68
2023-01-30T09:27:28.811Z,-1.83
2023-01-30T09:29:55.486Z,-1.67
2023-01-30T09:32:22.160Z,-1.69
2023-01-30T09:34:48.781Z,-1.79
2023-01-30T09:37:15.491Z,-1.88
2023-01-30T09:39:42.091Z,-1.71
2023-01-30T09:42:28.116Z,-1.62
2023-01-30T09:44:57.679Z,-1.60
2023-01-30T09:47:58.047Z,-1.62
2023-01-30T09:50:53.383Z,-1.54
2023-01-30T09:53:50.326Z,-1.53
2023-01-30T09:56:17.048Z,-1.52
2023-01-30T09:58:57.447Z,-1.53
2023-01-30T10:02:01.590Z,-1.48
2023-01-30T10:04:39.053Z,-1.47
2023-01-30T10:07:30.565Z,-1.43
2023-01-30T10:10:06.569Z,-1.38
2023-01-30T10:12:54.311Z,-1.47
2023-01-30T10:15:48.304Z,-1.30
2023-01-30T10:18:49.381Z,-1.38
2023-01-30T10:21:25.059Z,-1.48
2023-01-30T10:24:00.951Z,-1.23
2023-01-30T10:26:29.741Z,-1.36
2023-01-30T10:29:07.846Z,-1.23
2023-01-30T10:32:02.520Z,-1.32
2023-01-30T10:34:32.997Z,-1.26
2023-01-30T10:37:12.900Z,-1.42
2023-01-30T10:40:15.088Z,-1.13
2023-01-30T10:43:37.500Z,-1.10
2023-01-30T10:46:06.728Z,-1.04
2023-01-30T10:48:55.329Z,-1.04
2023-01-30T10:51:50.265Z,-1.04
2023-01-30T10:54:41.277Z,-0.97
2023-01-30T10:57:28.129Z,-1.05
2023-01-30T11:00:05.544Z,-0.92
2023-01-30T11:02:41.063Z,-0.85
2023-01-30T11:05:16.164Z,-0.84
2023-01-30T11:07:43.921Z,-0.79
2023-01-30T11:10:18.655Z,-1.00
2023-01-30T11:12:45.277Z,-0.97
2023-01-30T11:15:11.937Z,-0.99
2023-01-30T11:17:43.163Z,-0.79
2023-01-30T11:20:12.543Z,-0.77
2023-01-30T11:22:47.192Z,-0.90
2023-01-30T11:25:20.672Z,-0.57
2023-01-30T11:28:02.479Z,-0.64
2023-01-30T11:30:33.764Z,-0.45
2023-01-30T11:33:12.861Z,-0.44
2023-01-30T11:35:51.329Z,-0.66
2023-01-30T11:38:29.612Z,-0.57
2023-01-30T11:41:09.809Z,-0.61
2023-01-30T11:43:42.395Z,-0.58
2023-01-30T11:46:13.134Z,-0.38
2023-01-30T11:49:06.374Z,-0.43
2023-01-30T11:51:38.198Z,-0.60
2023-01-30T11:54:13.918Z,-0.72
2023-01-30T11:56:56.292Z,-0.70
2023-01-30T11:59:36.805Z,-0.66
2023-01-30T12:02:13.812Z,-0.56
2023-01-30T12:04:45.249Z,-0.43
2023-01-30T12:07:25.791Z,-0.24
2023-01-30T12:09:54.194Z,-0.31
2023-01-30T12:12:37.653Z,-0.38
2023-01-30T12:15:25.387Z,-0.49
2023-01-30T12:18:00.959Z,-0.53
2023-01-30T12:20:54.966Z,-0.47
2023-01-30T12:23:27.536Z,-0.56
2023-01-30T12:26:04.660Z,-0.47
2023-01-30T12:29:21.283Z,-0.45
2023-01-30T12:32:13.865Z,-0.34
2023-01-30T12:34:42.247Z,-0.24
2023-01-30T12:37:39.978Z,-0.31
2023-01-30T12:40:27.869Z,-0.57
2023-01-30T12:43:14.648Z,-0.29
2023-01-30T12:46:12.876Z,-0.51
2023-01-30T12:49:12.455Z,-0.35
2023-01-30T12:51:54.278Z,-0.44
2023-01-30T12:54:26.945Z,-0.19
2023-01-30T12:57:05.108Z,-0.30
2023-01-30T12:59:37.793Z,-0.23
2023-01-30T13:02:26.823Z,-0.66
2023-01-30T13:05:04.644Z,-0.23
2023-01-30T13:07:53.822Z,-0.26
2023-01-30T13:10:35.255Z,-0.14
2023-01-30T13:13:11.859Z,-0.12
2023-01-30T13:15:52.343Z,-0.13
2023-01-30T13:18:32.007Z,-0.12
2023-01-30T13:21:00.349Z,-0.12
2023-01-30T13:23:39.341Z,-0.16
2023-01-30T13:26:11.593Z,-0.17
2023-01-30T13:28:47.756Z,-0.15
2023-01-30T13:31:18.456Z,-0.10
2023-01-30T13:33:49.641Z,-0.05
2023-01-30T13:36:18.265Z,-0.18
2023-01-30T13:39:05.970Z,-0.02
2023-01-30T13:42:01.309Z,-0.05
2023-01-30T13:44:34.394Z,-0.26
2023-01-30T13:47:28.139Z,-0.11
2023-01-30T13:50:02.814Z,-0.10
2023-01-30T13:53:06.781Z,-0.32
2023-01-30T13:56:27.145Z,-0.16
2023-01-30T13:58:58.077Z,-0.12
2023-01-30T14:01:49.475Z,-0.17
2023-01-30T14:04:41.002Z,-0.18
2023-01-30T14:07:16.456Z,-0.18
2023-01-30T14:09:50.716Z,-0.15
2023-01-30T14:12:24.950Z,-0.13
2023-01-30T14:15:19.725Z,-0.15
2023-01-30T14:18:06.299Z,-0.24
2023-01-30T14:20:45.078Z,-0.09
2023-01-30T14:23:33.080Z,-0.12
2023-01-30T14:25:59.841Z,-0.14
2023-01-30T14:28:29.232Z,-0.04
2023-01-30T14:31:01.523Z,-0.17
2023-01-30T14:33:31.940Z,-0.05
2023-01-30T14:35:58.550Z,-0.02
2023-01-30T14:38:28.303Z,-0.02
2023-01-30T14:41:01.060Z,-0.01
2023-01-30T14:43:36.983Z,0.00
2023-01-30T14:46:32.706Z,-0.03
2023-01-30T14:49:05.564Z,-0.05
2023-01-30T14:51:49.576Z,-0.02
2023-01-30T14:54:16.171Z,-0.07
2023-01-30T14:56:54.258Z,-0.01
2023-01-30T14:59:34.659Z,0.02
2023-01-30T15:02:13.466Z,0.04
2023-01-30T15:04:49.195Z,0.08
2023-01-30T15:07:27.227Z,0.06
2023-01-30T15:10:01.539Z,-0.04
2023-01-30T15:12:34.217Z,0.15
2023-01-30T15:15:25.678Z,0.16
2023-01-30T15:18:24.883Z,0.17
2023-01-30T15:21:29.191Z,0.21
2023-01-30T15:24:14.035Z,0.21
2023-01-30T15:27:21.664Z,0.21
2023-01-30T15:30:16.991Z,0.22
2023-01-30T15:32:46.898Z,0.25
2023-01-30T15:35:16.640Z,0.26
2023-01-30T15:37:55.045Z,0.05
2023-01-30T15:40:29.923Z,0.09
2023-01-30T15:43:11.088Z,0.31
2023-01-30T15:46:06.017Z,0.31
2023-01-30T15:48:48.743Z,0.31
2023-01-30T15:51:19.687Z,0.29
2023-01-30T15:53:47.649Z,0.11
2023-01-30T15:56:23.677Z,0.10
2023-01-30T15:58:50.999Z,0.23
2023-01-30T16:01:20.679Z,0.33
2023-01-30T16:03:50.068Z,0.34
2023-01-30T16:06:23.346Z,0.30
2023-01-30T16:09:19.488Z,0.33
2023-01-30T16:11:46.646Z,0.33
2023-01-30T16:14:15.841Z,0.35
2023-01-30T16:17:00.159Z,0.17
2023-01-30T16:19:30.817Z,0.32
2023-01-30T16:22:03.688Z,0.25
2023-01-30T16:24:33.005Z,0.19
2023-01-30T16:27:03.507Z,-0.05
2023-01-30T16:29:33.446Z,0.36
2023-01-30T16:32:00.360Z,0.09
2023-01-30T16:34:36.149Z,0.32
2023-01-30T16:37:16.879Z,0.37
2023-01-30T16:39:45.707Z,0.37
2023-01-30T16:42:29.806Z,0.27
2023-01-30T16:45:33.474Z,0.39
2023-01-30T16:48:06.276Z,0.41
2023-01-30T16:50:38.602Z,0.41
2023-01-30T16:53:05.268Z,0.30
2023-01-30T16:55:33.097Z,0.27
2023-01-30T16:58:03.465Z,0.38
2023-01-30T17:00:39.446Z,0.39
2023-01-30T17:03:21.526Z,0.22
2023-01-30T17:05:49.766Z,0.28
2023-01-30T17:08:31.756Z,0.38
2023-01-30T17:11:07.381Z,0.43
2023-01-30T17:13:38.281Z,0.44
2023-01-30T17:16:23.251Z,0.48
2023-01-30T17:18:54.008Z,0.37
2023-01-30T17:21:23.004Z,0.48
2023-01-30T17:24:01.434Z,0.37
2023-01-30T17:26:28.929Z,0.50
2023-01-30T17:28:55.596Z,0.40
2023-01-30T17:31:22.430Z,0.48
2023-01-30T17:33:49.139Z,0.47
2023-01-30T17:36:15.659Z,0.48
2023-01-30T17:38:42.292Z,0.30
2023-01-30T17:41:18.447Z,0.34
2023-01-30T17:43:45.133Z,0.40
2023-01-30T17:46:12.825Z,0.44
2023-01-30T17:48:39.764Z,0.12
2023-01-30T17:51:06.368Z,0.31
2023-01-30T17:53:33.012Z,0.34
2023-01-30T17:55:59.795Z,0.27
2023-01-30T17:58:26.526Z,0.18
2023-01-30T18:00:53.123Z,0.35
2023-01-30T18:03:19.875Z,0.26
2023-01-30T18:05:46.570Z,0.24
2023-01-30T18:08:14.188Z,0.33
2023-01-30T18:10:40.858Z,0.11
2023-01-30T18:13:07.501Z,0.29
2023-01-30T18:15:34.187Z,0.15
2023-01-30T18:18:01.071Z,0.34
2023-01-30T18:20:27.771Z,0.24
2023-01-30T18:22:54.372Z,0.20
2023-01-30T18:25:21.369Z,0.16
2023-01-30T18:27:48.398Z,0.26
2023-01-30T18:30:17.460Z,0.51
2023-01-30T18:32:52.996Z,0.50
2023-01-30T18:35:21.430Z,0.28
2023-01-30T18:37:48.195Z,0.54
2023-01-30T18:40:15.227Z,0.43
2023-01-30T18:42:42.466Z,0.57
2023-01-30T18:45:09.561Z,0.51
2023-01-30T18:47:36.156Z,0.39
2023-01-30T18:50:05.893Z,0.61
2023-01-30T18:52:32.653Z,0.33
2023-01-30T18:54:59.271Z,0.44
2023-01-30T18:57:25.844Z,0.46
2023-01-30T18:59:52.492Z,0.54
2023-01-30T19:02:19.155Z,0.41
2023-01-30T19:04:46.029Z,0.56
2023-01-30T19:07:12.624Z,0.62
2023-01-30T19:09:42.604Z,0.56
2023-01-30T19:12:27.765Z,0.26
2023-01-30T19:14:54.526Z,0.13
2023-01-30T19:17:21.630Z,0.12
2023-01-30T19:19:48.425Z,0.13
2023-01-30T19:22:18.281Z,-0.13
2023-01-30T19:24:47.716Z,0.09
2023-01-30T19:27:14.360Z,0.21
2023-01-30T19:29:41.834Z,0.11
2023-01-30T19:32:09.500Z,-0.04
2023-01-30T19:34:37.140Z,0.36
2023-01-30T19:37:04.014Z,0.14
2023-01-30T19:39:30.711Z,-0.18
2023-01-30T19:41:57.406Z,-0.40
2023-01-30T19:44:24.192Z,0.05
2023-01-30T19:46:51.046Z,-0.07
2023-01-30T19:49:17.751Z,0.47
2023-01-30T19:51:44.481Z,0.20
2023-01-30T19:54:12.116Z,0.51
2023-01-30T19:56:41.928Z,0.43
2023-01-30T19:59:11.170Z,0.61
2023-01-30T20:01:40.604Z,0.38
2023-01-30T20:04:07.667Z,0.26
2023-01-30T20:06:36.055Z,0.47
2023-01-30T20:09:06.490Z,0.51
2023-01-30T20:11:34.970Z,0.51
2023-01-30T20:14:02.422Z,0.35
2023-01-30T20:16:31.175Z,0.24
2023-01-30T20:19:00.205Z,0.23
2023-01-30T20:21:28.088Z,0.40
2023-01-30T20:23:55.505Z,0.03
2023-01-30T20:26:28.936Z,0.42
2023-01-30T20:28:56.816Z,0.17
2023-01-30T20:31:26.885Z,0.44
2023-01-30T20:33:55.837Z,0.46
2023-01-30T20:36:22.898Z,0.26
2023-01-30T20:38:50.895Z,0.50
2023-01-30T20:41:26.045Z,0.40
2023-01-30T20:43:57.277Z,0.50
2023-01-30T20:46:28.771Z,0.27
2023-01-30T20:48:56.917Z,0.42
2023-01-30T20:51:26.182Z,0.47
2023-01-30T20:53:58.946Z,0.28
2023-01-30T20:56:30.366Z,0.38
2023-01-30T20:58:57.126Z,0.19
2023-01-30T21:01:24.402Z,0.54
2023-01-30T21:03:53.358Z,0.51
2023-01-30T21:06:42.573Z,0.37
2023-01-30T21:09:12.700Z,0.42
2023-01-30T21:11:39.974Z,0.57
2023-01-30T21:14:07.426Z,0.50
2023-01-30T21:16:35.422Z,0.40
2023-01-30T21:19:06.356Z,0.42
2023-01-30T21:21:50.300Z,0.53
2023-01-30T21:24:20.743Z,0.56
2023-01-30T21:26:48.322Z,0.44
2023-01-30T21:29:17.264Z,0.54
2023-01-30T21:31:44.884Z,0.42
2023-01-30T21:34:12.697Z,0.50
2023-01-30T21:36:40.283Z,0.40
2023-01-30T21:39:25.695Z,0.34
2023-01-30T21:42:01.349Z,0.56
2023-01-30T21:44:33.836Z,0.05
2023-01-30T21:47:00.502Z,0.29
2023-01-30T21:49:27.976Z,0.54
2023-01-30T21:51:54.998Z,0.35
2023-01-30T21:54:22.186Z,0.53
2023-01-30T21:56:49.355Z,0.51
2023-01-30T21:59:16.796Z,0.56
2023-01-30T22:01:43.492Z,0.57
2023-01-30T22:04:13.951Z,0.41
2023-01-30T22:06:41.526Z,0.44
2023-01-30T22:09:09.013Z,0.60
2023-01-30T22:11:37.694Z,0.58
2023-01-30T22:14:04.749Z,0.59
2023-01-30T22:16:33.617Z,0.65
2023-01-30T22:19:03.165Z,0.22
2023-01-30T22:21:33.396Z,0.63
2023-01-30T22:24:02.173Z,0.69
2023-01-30T22:26:28.907Z,0.74
2023-01-30T22:28:59.905Z,0.78
2023-01-30T22:31:29.953Z,0.63
2023-01-30T22:33:57.113Z,0.77
2023-01-30T22:36:25.924Z,0.70
2023-01-30T22:38:52.607Z,0.24
2023-01-30T22:41:23.678Z,0.81
2023-01-30T22:43:53.398Z,0.82
2023-01-30T22:46:20.859Z,0.84
2023-01-30T22:48:47.720Z,0.65
2023-01-30T22:51:16.282Z,0.86
2023-01-30T22:53:45.476Z,0.83
2023-01-30T22:56:14.843Z,0.84
2023-01-30T22:58:42.195Z,0.85
2023-01-30T23:01:08.806Z,0.83
2023-01-30T23:03:35.900Z,0.83
2023-01-30T23:06:06.063Z,0.56
2023-01-30T23:08:39.121Z,0.57
2023-01-30T23:11:09.713Z,0.72
2023-01-30T23:13:36.760Z,0.51
2023-01-30T23:16:05.167Z,0.44
2023-01-30T23:18:50.221Z,0.87
2023-01-30T23:21:17.411Z,0.68
2023-01-30T23:23:45.339Z,0.68
2023-01-30T23:26:13.114Z,0.51
2023-01-30T23:28:40.246Z,0.85
2023-01-30T23:31:14.301Z,0.84
2023-01-30T23:33:41.533Z,0.69
2023-01-30T23:36:11.027Z,0.90
2023-01-30T23:38:38.846Z,0.93
2023-01-30T23:41:08.118Z,0.95
2023-01-30T23:43:35.369Z,0.64
2023-01-30T23:46:15.911Z,1.00
2023-01-30T23:48:44.476Z,0.95
2023-01-30T23:51:12.472Z,0.93
2023-01-30T23:53:39.921Z,0.76
2023-01-30T23:56:07.859Z,0.77
2023-01-30T23:58:35.230Z,0.89
